createdAt,value
2019-05-30T00:00:54.295Z,57.30
2019-05-30T00:03:42.781Z,57.40
2019-05-30T00:06:31.190Z,57.40
2019-05-30T00:09:19.588Z,57.40
2019-05-30T00:12:09.201Z,57.50
2019-05-30T00:14:58.549Z,57.40
2019-05-30T00:17:48.089Z,57.50
2019-05-30T00:20:36.885Z,57.50
2019-05-30T00:23:24.977Z,57.50
2019-05-30T00:26:13.560Z,57.50
2019-05-30T00:29:02.555Z,57.50
2019-05-30T00:31:51.745Z,57.50
2019-05-30T00:34:40.100Z,57.40
2019-05-30T00:37:28.499Z,57.50
2019-05-30T00:40:17.543Z,57.60
2019-05-30T00:43:06.395Z,57.50
2019-05-30T00:45:55.872Z,57.50
2019-05-30T00:48:44.362Z,57.50
2019-05-30T00:51:33.115Z,57.50
2019-05-30T00:54:21.638Z,57.50
2019-05-30T00:57:10.146Z,57.60
2019-05-30T00:59:58.872Z,57.50
2019-05-30T01:02:47.659Z,57.60
2019-05-30T01:05:35.931Z,57.60
2019-05-30T01:08:24.785Z,57.60
2019-05-30T01:11:13.210Z,57.70
2019-05-30T01:14:03.740Z,57.70
2019-05-30T01:16:52.489Z,57.70
2019-05-30T01:19:41.635Z,57.70
2019-05-30T01:22:29.830Z,57.80
2019-05-30T01:25:18.950Z,57.70
2019-05-30T01:28:07.937Z,57.70
2019-05-30T01:31:00.220Z,57.70
2019-05-30T01:33:46.885Z,57.70
2019-05-30T01:36:35.539Z,57.70
2019-05-30T01:39:24.744Z,57.60
2019-05-30T01:42:13.074Z,57.70
2019-05-30T01:45:02.515Z,57.70
2019-05-30T01:47:51.412Z,57.80
2019-05-30T01:50:40.416Z,57.70
2019-05-30T01:53:28.822Z,57.70
2019-05-30T01:56:17.113Z,57.60
2019-05-30T01:59:06.741Z,57.70
2019-05-30T02:01:55.411Z,57.60
2019-05-30T02:04:44.212Z,57.70
2019-05-30T02:07:32.577Z,57.70
2019-05-30T02:10:21.094Z,57.70
2019-05-30T02:13:10.631Z,57.80
2019-05-30T02:15:59.603Z,57.70
2019-05-30T02:18:48.917Z,57.70
2019-05-30T02:21:38.373Z,57.70
2019-05-30T02:24:26.959Z,57.80
2019-05-30T02:27:15.327Z,57.70
2019-05-30T02:30:08.052Z,57.70
2019-05-30T02:32:55.596Z,57.80
2019-05-30T02:35:43.863Z,57.70
2019-05-30T02:38:32.078Z,57.80
2019-05-30T02:41:20.189Z,57.70
2019-05-30T02:44:10.330Z,57.70
2019-05-30T02:46:59.112Z,57.70
2019-05-30T02:49:47.908Z,57.70
2019-05-30T02:52:36.225Z,57.70
2019-05-30T02:55:25.845Z,57.70
2019-05-30T02:58:15.236Z,57.70
2019-05-30T03:01:04.454Z,57.80
2019-05-30T03:03:53.703Z,57.70
2019-05-30T03:06:43.238Z,57.70
2019-05-30T03:09:31.632Z,57.80
2019-05-30T03:12:21.569Z,57.80
2019-05-30T03:15:14.392Z,57.90
2019-05-30T03:18:02.307Z,57.90
2019-05-30T03:20:52.013Z,58.60
2019-05-30T03:23:40.888Z,58.00
2019-05-30T03:26:30.187Z,58.00
2019-05-30T03:29:19.275Z,58.30
2019-05-30T03:32:51.761Z,58.20
2019-05-30T03:34:59.765Z,58.40
2019-05-30T03:37:48.380Z,58.40
2019-05-30T03:40:36.974Z,58.00
2019-05-30T03:43:25.511Z,58.00
2019-05-30T03:46:17.671Z,57.90
2019-05-30T03:49:10.736Z,57.90
2019-05-30T03:52:02.202Z,57.80
2019-05-30T03:54:52.653Z,57.60
2019-05-30T03:57:45.161Z,57.60
2019-05-30T04:00:45.585Z,57.50
2019-05-30T04:03:46.509Z,57.40
2019-05-30T04:06:37.960Z,57.60
2019-05-30T04:09:28.408Z,57.60
2019-05-30T04:12:42.385Z,57.50
2019-05-30T04:15:33.703Z,57.60
2019-05-30T04:18:22.522Z,57.50
2019-05-30T04:21:14.177Z,57.40
2019-05-30T04:24:04.868Z,57.40
2019-05-30T04:26:53.203Z,57.40
2019-05-30T04:29:41.900Z,57.50
2019-05-30T04:32:30.435Z,57.40
2019-05-30T04:35:19.497Z,57.40
2019-05-30T04:38:10.225Z,57.60
2019-05-30T04:40:59.002Z,57.30
2019-05-30T04:43:48.226Z,57.30
2019-05-30T04:46:36.858Z,57.40
2019-05-30T04:49:25.632Z,57.40
2019-05-30T04:52:19.821Z,57.30
2019-05-30T04:55:10.722Z,57.30
2019-05-30T04:57:59.314Z,57.40
2019-05-30T05:00:48.379Z,57.60
2019-05-30T05:03:45.753Z,57.30
2019-05-30T05:06:27.196Z,57.30
2019-05-30T05:09:16.152Z,57.30
2019-05-30T05:12:06.004Z,57.60
2019-05-30T05:14:54.762Z,57.40
2019-05-30T05:17:43.482Z,57.40
2019-05-30T05:20:35.238Z,57.70
2019-05-30T05:23:21.747Z,57.70
2019-05-30T05:26:10.312Z,57.80
2019-05-30T05:28:58.663Z,57.60
2019-05-30T05:31:47.677Z,57.90
2019-05-30T05:34:35.980Z,57.50
2019-05-30T05:37:25.296Z,57.90
2019-05-30T05:40:16.137Z,57.50
2019-05-30T05:43:04.723Z,57.60
2019-05-30T05:45:53.247Z,58.00
2019-05-30T05:48:43.302Z,57.60
2019-05-30T05:51:31.652Z,58.30
2019-05-30T05:54:20.884Z,58.30
2019-05-30T05:57:09.374Z,57.90
2019-05-30T05:59:57.551Z,57.60
2019-05-30T06:02:46.372Z,58.30
2019-05-30T06:05:34.712Z,58.00
2019-05-30T06:08:23.740Z,57.80
2019-05-30T06:11:12.496Z,57.60
2019-05-30T06:14:01.052Z,58.00
2019-05-30T06:16:49.342Z,58.60
2019-05-30T06:19:46.355Z,58.00
2019-05-30T06:22:27.882Z,58.30
2019-05-30T06:25:18.924Z,58.50
2019-05-30T06:28:06.993Z,57.90
2019-05-30T06:30:58.733Z,58.30
2019-05-30T06:33:45.676Z,58.10
2019-05-30T06:36:34.075Z,57.90
2019-05-30T06:39:23.391Z,57.90
2019-05-30T06:42:12.101Z,57.60
2019-05-30T06:45:01.863Z,57.70
2019-05-30T06:47:50.208Z,57.80
2019-05-30T06:50:38.522Z,57.70
2019-05-30T06:53:27.274Z,57.50
2019-05-30T06:56:16.892Z,57.40
2019-05-30T06:59:06.252Z,57.80
2019-05-30T07:01:54.969Z,58.20
2019-05-30T07:04:51.660Z,58.30
2019-05-30T07:07:33.770Z,58.10
2019-05-30T07:10:22.845Z,58.10
2019-05-30T07:13:11.620Z,58.30
2019-05-30T07:16:00.065Z,58.00
2019-05-30T07:18:48.493Z,58.20
2019-05-30T07:21:37.077Z,58.00
2019-05-30T07:24:25.714Z,57.70
2019-05-30T07:27:14.899Z,57.60
2019-05-30T07:30:05.456Z,58.00
2019-05-30T07:32:54.170Z,58.00
2019-05-30T07:35:43.055Z,57.40
2019-05-30T07:38:32.538Z,58.00
2019-05-30T07:41:21.656Z,58.10
2019-05-30T07:44:10.205Z,58.30
2019-05-30T07:46:59.084Z,58.50
2019-05-30T07:49:47.544Z,58.10
2019-05-30T07:52:35.826Z,58.40
2019-05-30T07:55:24.120Z,58.30
2019-05-30T07:58:12.287Z,58.10
2019-05-30T08:01:00.888Z,57.70
2019-05-30T08:03:49.305Z,57.80
2019-05-30T08:06:37.880Z,57.50
2019-05-30T08:09:26.911Z,57.50
2019-05-30T08:12:15.911Z,57.60
2019-05-30T08:15:05.990Z,57.80
2019-05-30T08:17:55.695Z,57.40
2019-05-30T08:20:44.391Z,58.40
2019-05-30T08:23:34.157Z,58.40
2019-05-30T08:26:24.733Z,58.00
2019-05-30T08:29:13.453Z,58.20
2019-05-30T08:32:01.985Z,58.00
2019-05-30T08:34:50.616Z,58.10
2019-05-30T08:37:39.438Z,58.20
2019-05-30T08:40:29.054Z,57.60
2019-05-30T08:43:17.699Z,58.10
2019-05-30T08:46:06.668Z,58.00
2019-05-30T08:48:55.561Z,57.60
2019-05-30T08:51:44.010Z,57.40
2019-05-30T08:54:32.620Z,57.40
2019-05-30T08:57:21.456Z,57.30
2019-05-30T09:00:12.587Z,57.80
2019-05-30T09:03:01.219Z,58.60
2019-05-30T09:06:02.749Z,58.20
2019-05-30T09:08:40.134Z,58.20
2019-05-30T09:11:29.099Z,58.00
2019-05-30T09:14:17.703Z,58.30
2019-05-30T09:17:06.442Z,57.50
2019-05-30T09:19:54.727Z,57.80
2019-05-30T09:22:43.720Z,57.80
2019-05-30T09:25:32.910Z,57.40
2019-05-30T09:28:21.735Z,57.20
2019-05-30T09:31:10.739Z,57.40
2019-05-30T09:33:59.268Z,57.20
2019-05-30T09:36:49.134Z,57.40
2019-05-30T09:39:37.501Z,57.10
2019-05-30T09:42:26.073Z,57.60
2019-05-30T09:45:18.478Z,57.60
2019-05-30T09:48:06.798Z,57.40
2019-05-30T09:50:55.458Z,57.50
2019-05-30T09:53:43.886Z,57.50
2019-05-30T09:56:33.096Z,57.20
2019-05-30T09:59:21.459Z,57.30
2019-05-30T10:02:09.798Z,57.30
2019-05-30T10:04:58.445Z,57.50
2019-05-30T10:07:47.533Z,57.40
2019-05-30T10:10:36.397Z,57.90
2019-05-30T10:13:25.263Z,57.50
2019-05-30T10:16:13.723Z,57.40
2019-05-30T10:19:02.434Z,57.30
2019-05-30T10:21:53.240Z,57.30
2019-05-30T10:24:43.049Z,57.30
2019-05-30T10:27:32.119Z,57.20
2019-05-30T10:30:21.070Z,57.60
2019-05-30T10:33:09.369Z,57.40
2019-05-30T10:35:57.585Z,57.70
2019-05-30T10:38:49.077Z,57.60
2019-05-30T10:41:37.948Z,57.40
2019-05-30T10:44:26.066Z,57.30
2019-05-30T10:47:15.318Z,57.40
2019-05-30T10:50:06.993Z,57.40
2019-05-30T10:52:55.647Z,57.10
2019-05-30T10:55:45.303Z,57.20
2019-05-30T10:58:35.495Z,57.10
2019-05-30T11:01:25.459Z,57.20
2019-05-30T11:04:14.097Z,57.20
2019-05-30T11:07:32.705Z,57.60
2019-05-30T11:10:41.777Z,57.70
2019-05-30T11:13:29.897Z,57.70
2019-05-30T11:16:18.309Z,57.50
2019-05-30T11:19:07.666Z,57.50
2019-05-30T11:21:56.518Z,57.80
2019-05-30T11:24:45.087Z,57.30
2019-05-30T11:27:35.444Z,57.30
2019-05-30T11:30:24.578Z,57.20
2019-05-30T11:33:13.218Z,57.90
2019-05-30T11:36:01.659Z,57.60
2019-05-30T11:38:52.386Z,57.70
2019-05-30T11:41:41.274Z,57.60
2019-05-30T11:44:30.189Z,57.80
2019-05-30T11:47:18.707Z,57.60
2019-05-30T11:50:08.352Z,57.60
2019-05-30T11:52:57.966Z,57.60
2019-05-30T11:55:46.954Z,57.60
2019-05-30T11:58:35.547Z,57.50
2019-05-30T12:01:24.425Z,57.50
2019-05-30T12:04:12.921Z,57.40
2019-05-30T12:07:02.800Z,57.30
2019-05-30T12:09:52.797Z,57.70
2019-05-30T12:12:41.730Z,57.80
2019-05-30T12:15:30.483Z,57.70
2019-05-30T12:18:19.419Z,57.70
2019-05-30T12:21:08.820Z,57.60
2019-05-30T12:23:58.144Z,58.00
2019-05-30T12:26:47.332Z,57.50
2019-05-30T12:29:35.403Z,57.70
2019-05-30T12:32:24.983Z,57.60
2019-05-30T12:35:15.861Z,57.40
2019-05-30T12:38:06.600Z,57.40
2019-05-30T12:40:56.703Z,57.40
2019-05-30T12:43:46.379Z,57.50
2019-05-30T12:46:35.022Z,57.90
2019-05-30T12:49:23.911Z,57.70
2019-05-30T12:52:13.835Z,57.70
2019-05-30T12:55:03.602Z,57.50
2019-05-30T12:57:51.886Z,57.40
2019-05-30T13:00:42.082Z,57.40
2019-05-30T13:03:30.511Z,57.40
2019-05-30T13:06:19.568Z,57.50
2019-05-30T13:09:09.930Z,57.80
2019-05-30T13:11:58.441Z,58.00
2019-05-30T13:14:47.561Z,57.50
2019-05-30T13:17:36.033Z,57.50
2019-05-30T13:20:25.765Z,57.70
2019-05-30T13:23:14.554Z,57.50
2019-05-30T13:26:03.795Z,57.40
2019-05-30T13:28:53.685Z,57.40
2019-05-30T13:31:42.022Z,57.40
2019-05-30T13:34:30.495Z,58.00
2019-05-30T13:37:19.798Z,58.00
2019-05-30T13:40:24.404Z,57.70
2019-05-30T13:43:01.883Z,57.60
2019-05-30T13:45:51.640Z,57.60
2019-05-30T13:48:40.201Z,57.70
2019-05-30T13:51:29.476Z,57.70
2019-05-30T13:54:17.823Z,57.50
2019-05-30T13:57:07.689Z,57.60
2019-05-30T13:59:59.577Z,57.70
2019-05-30T14:02:48.469Z,57.60
2019-05-30T14:05:36.678Z,57.60
2019-05-30T14:08:25.177Z,57.60
2019-05-30T14:11:14.139Z,57.60
2019-05-30T14:14:02.779Z,57.50
2019-05-30T14:16:52.307Z,57.50
2019-05-30T14:19:41.494Z,57.50
2019-05-30T14:22:30.049Z,57.60
2019-05-30T14:25:18.937Z,57.50
2019-05-30T14:28:07.829Z,57.80
2019-05-30T14:30:56.311Z,57.80
2019-05-30T14:33:44.860Z,57.80
2019-05-30T14:36:33.855Z,58.00
2019-05-30T14:39:22.262Z,58.00
2019-05-30T14:42:11.238Z,58.00
2019-05-30T14:45:00.313Z,58.10
2019-05-30T14:47:49.705Z,57.80
2019-05-30T14:50:38.080Z,57.90
2019-05-30T14:53:26.797Z,57.70
2019-05-30T14:56:14.987Z,57.70
2019-05-30T14:59:04.855Z,57.80
2019-05-30T15:01:54.714Z,57.70
2019-05-30T15:04:43.438Z,57.70
2019-05-30T15:07:31.743Z,57.60
2019-05-30T15:10:21.183Z,57.80
2019-05-30T15:13:11.610Z,57.60
2019-05-30T15:16:00.250Z,58.10
2019-05-30T15:18:48.450Z,57.70
2019-05-30T15:21:36.886Z,57.70
2019-05-30T15:24:25.304Z,57.70
2019-05-30T15:27:14.144Z,57.70
2019-05-30T15:30:08.314Z,57.70
2019-05-30T15:32:57.284Z,57.90
2019-05-30T15:35:45.651Z,57.70
2019-05-30T15:38:35.713Z,58.00
2019-05-30T15:41:24.157Z,57.90
2019-05-30T15:44:13.628Z,57.90
2019-05-30T15:47:03.762Z,57.70
2019-05-30T15:49:52.542Z,57.70
2019-05-30T15:52:42.323Z,57.70
2019-05-30T15:55:30.993Z,57.70
2019-05-30T15:58:20.453Z,57.70
2019-05-30T16:01:09.967Z,57.80
2019-05-30T16:03:58.147Z,58.20
2019-05-30T16:06:46.397Z,57.90
2019-05-30T16:09:46.773Z,58.00
2019-05-30T16:12:24.662Z,57.90
2019-05-30T16:15:17.620Z,57.70
2019-05-30T16:18:07.437Z,57.70
2019-05-30T16:20:56.092Z,57.70
2019-05-30T16:23:44.358Z,57.80
2019-05-30T16:26:32.832Z,58.10
2019-05-30T16:29:21.938Z,58.00
2019-05-30T16:32:10.856Z,58.10
2019-05-30T16:34:59.562Z,58.20
2019-05-30T16:37:48.236Z,58.20
2019-05-30T16:40:36.663Z,58.20
2019-05-30T16:43:26.592Z,58.20
2019-05-30T16:46:16.259Z,57.80
2019-05-30T16:49:05.534Z,57.80
2019-05-30T16:51:53.910Z,57.90
2019-05-30T16:54:42.294Z,57.90
2019-05-30T16:57:31.542Z,58.00
2019-05-30T17:00:21.911Z,57.90
2019-05-30T17:03:10.268Z,58.20
2019-05-30T17:05:58.775Z,58.00
2019-05-30T17:08:47.260Z,58.40
2019-05-30T17:11:35.929Z,57.90
2019-05-30T17:14:24.368Z,57.80
2019-05-30T17:17:12.713Z,57.80
2019-05-30T17:20:01.848Z,58.10
2019-05-30T17:22:50.051Z,58.00
2019-05-30T17:25:38.689Z,58.00
2019-05-30T17:28:27.047Z,58.00
2019-05-30T17:31:15.653Z,58.30
2019-05-30T17:34:04.891Z,58.10
2019-05-30T17:36:53.452Z,58.20
2019-05-30T17:39:42.266Z,58.00
2019-05-30T17:42:30.496Z,57.90
2019-05-30T17:45:21.080Z,57.80
2019-05-30T17:48:16.374Z,57.90
2019-05-30T17:50:59.161Z,58.20
2019-05-30T17:53:47.610Z,58.20
2019-05-30T17:56:36.107Z,58.20
2019-05-30T17:59:24.512Z,58.10
2019-05-30T18:02:13.302Z,58.10
2019-05-30T18:05:02.284Z,58.10
2019-05-30T18:07:50.970Z,58.00
2019-05-30T18:10:52.945Z,58.10
2019-05-30T18:13:29.631Z,57.90
2019-05-30T18:16:18.264Z,57.90
2019-05-30T18:19:06.753Z,58.00
2019-05-30T18:21:55.403Z,57.80
2019-05-30T18:24:43.575Z,58.00
2019-05-30T18:27:32.123Z,58.00
2019-05-30T18:30:24.414Z,58.30
2019-05-30T18:33:12.664Z,58.30
2019-05-30T18:36:01.111Z,58.10
2019-05-30T18:38:49.738Z,58.00
2019-05-30T18:41:38.019Z,58.00
2019-05-30T18:44:30.214Z,58.30
2019-05-30T18:47:17.048Z,58.00
2019-05-30T18:50:07.485Z,58.00
2019-05-30T18:52:56.046Z,58.00
2019-05-30T18:55:44.569Z,58.00
2019-05-30T18:58:33.289Z,58.00
2019-05-30T19:01:22.506Z,58.10
2019-05-30T19:04:12.292Z,58.20
2019-05-30T19:07:00.788Z,58.30
2019-05-30T19:09:50.475Z,58.20
2019-05-30T19:12:39.386Z,58.10
2019-05-30T19:15:30.034Z,58.30
2019-05-30T19:18:19.233Z,58.20
2019-05-30T19:21:08.081Z,58.20
2019-05-30T19:23:56.722Z,58.30
2019-05-30T19:26:45.226Z,58.10
2019-05-30T19:29:34.929Z,58.00
2019-05-30T19:32:24.463Z,58.00
2019-05-30T19:35:13.884Z,58.10
2019-05-30T19:38:02.475Z,58.10
2019-05-30T19:40:51.013Z,58.10
2019-05-30T19:43:39.974Z,58.10
2019-05-30T19:46:28.648Z,58.10
2019-05-30T19:49:17.507Z,58.30
2019-05-30T19:52:06.266Z,58.10
2019-05-30T19:54:54.397Z,58.10
2019-05-30T19:57:43.133Z,58.00
2019-05-30T20:00:33.746Z,58.00
2019-05-30T20:03:35.775Z,58.00
2019-05-30T20:06:12.806Z,58.00
2019-05-30T20:09:01.162Z,58.00
2019-05-30T20:12:02.830Z,58.10
2019-05-30T20:14:41.329Z,58.20
2019-05-30T20:17:30.431Z,58.10
2019-05-30T20:20:20.181Z,58.10
2019-05-30T20:23:08.684Z,58.10
2019-05-30T20:25:57.335Z,58.10
2019-05-30T20:28:45.814Z,58.10
2019-05-30T20:31:35.517Z,58.10
2019-05-30T20:34:24.871Z,58.20
2019-05-30T20:37:13.522Z,58.20
2019-05-30T20:40:02.546Z,58.20
2019-05-30T20:42:51.447Z,58.20
2019-05-30T20:45:45.694Z,58.20
2019-05-30T20:48:30.961Z,58.30
2019-05-30T20:51:21.383Z,58.20
2019-05-30T20:54:09.636Z,58.20
2019-05-30T20:56:58.168Z,58.20
2019-05-30T20:59:47.130Z,58.30
2019-05-30T21:02:36.698Z,58.20
2019-05-30T21:05:25.704Z,58.30
2019-05-30T21:08:15.945Z,58.30
2019-05-30T21:11:06.987Z,58.30
2019-05-30T21:13:55.328Z,58.40
2019-05-30T21:16:46.762Z,58.40
2019-05-30T21:19:35.896Z,58.40
2019-05-30T21:22:25.173Z,58.40
2019-05-30T21:25:14.129Z,58.40
2019-05-30T21:28:02.399Z,58.40
2019-05-30T21:30:51.325Z,58.50
2019-05-30T21:33:40.568Z,58.50
2019-05-30T21:36:29.795Z,58.50
2019-05-30T21:39:18.404Z,58.50
2019-05-30T21:42:07.781Z,58.50
2019-05-30T21:44:56.142Z,58.50
2019-05-30T21:47:44.947Z,58.60
2019-05-30T21:50:33.247Z,58.60
2019-05-30T21:53:21.729Z,58.60
2019-05-30T21:56:12.819Z,58.60
2019-05-30T21:59:00.269Z,58.60
2019-05-30T22:01:54.840Z,58.60
2019-05-30T22:04:38.836Z,58.70
2019-05-30T22:07:27.470Z,58.70
2019-05-30T22:10:16.095Z,58.70
2019-05-30T22:13:09.478Z,58.70
2019-05-30T22:15:55.109Z,58.70
2019-05-30T22:18:44.085Z,58.80
2019-05-30T22:21:32.575Z,58.70
2019-05-30T22:24:20.726Z,58.80
2019-05-30T22:27:08.982Z,58.80
2019-05-30T22:29:57.526Z,58.80
2019-05-30T22:32:46.602Z,58.80
2019-05-30T22:35:35.584Z,58.90
2019-05-30T22:38:24.163Z,58.90
2019-05-30T22:41:12.689Z,58.90
2019-05-30T22:44:01.961Z,58.90
2019-05-30T22:46:50.544Z,58.90
2019-05-30T22:49:38.815Z,58.90
2019-05-30T22:52:27.536Z,58.90
2019-05-30T22:55:15.970Z,59.10
2019-05-30T22:58:04.328Z,59.00
2019-05-30T23:00:53.995Z,59.10
2019-05-30T23:03:42.426Z,59.00
2019-05-30T23:06:31.233Z,59.10
2019-05-30T23:09:20.649Z,59.00
2019-05-30T23:12:09.616Z,59.00
2019-05-30T23:14:59.528Z,59.20
2019-05-30T23:17:48.322Z,59.10
2019-05-30T23:20:37.626Z,59.30
2019-05-30T23:23:26.277Z,59.20
2019-05-30T23:26:14.955Z,59.40
2019-05-30T23:29:03.200Z,59.20
2019-05-30T23:31:52.371Z,59.30
2019-05-30T23:34:40.906Z,59.20
2019-05-30T23:37:29.793Z,59.30
2019-05-30T23:40:19.396Z,59.50
2019-05-30T23:43:08.091Z,59.50
2019-05-30T23:45:57.515Z,59.50
2019-05-30T23:48:46.872Z,59.50
2019-05-30T23:51:35.556Z,59.30
2019-05-30T23:54:24.030Z,59.60
2019-05-30T23:57:12.379Z,59.50
